createdAt,value
2022-11-20T00:01:35.497Z,31.00
2022-11-20T00:04:05.509Z,34.97
2022-11-20T00:06:34.259Z,33.08
2022-11-20T00:09:03.543Z,36.40
2022-11-20T00:11:33.415Z,34.47
2022-11-20T00:14:03.467Z,35.10
2022-11-20T00:16:33.719Z,32.63
2022-11-20T00:19:02.040Z,31.00
2022-11-20T00:21:32.237Z,36.10
2022-11-20T00:24:00.693Z,35.70
2022-11-20T00:26:30.076Z,35.25
2022-11-20T00:29:00.274Z,30.75
2022-11-20T00:31:29.684Z,36.88
2022-11-20T00:33:58.209Z,33.47
2022-11-20T00:36:28.417Z,35.28
2022-11-20T00:38:59.523Z,30.13
2022-11-20T00:41:29.470Z,34.33
2022-11-20T00:43:58.372Z,34.65
2022-11-20T00:46:28.765Z,37.60
2022-11-20T00:48:57.060Z,37.55
2022-11-20T00:51:27.685Z,41.13
2022-11-20T00:53:58.951Z,34.97
2022-11-20T00:56:27.784Z,33.30
2022-11-20T00:58:55.927Z,39.83
2022-11-20T01:01:26.444Z,38.87
2022-11-20T01:03:59.420Z,36.50
2022-11-20T01:06:29.872Z,31.98
2022-11-20T01:09:00.694Z,33.47
2022-11-20T01:11:31.572Z,40.45
2022-11-20T01:14:01.282Z,33.67
2022-11-20T01:16:31.920Z,41.47
2022-11-20T01:19:01.667Z,39.05
2022-11-20T01:21:31.620Z,35.05
2022-11-20T01:24:01.614Z,41.65
2022-11-20T01:26:32.479Z,39.45
2022-11-20T01:29:01.535Z,37.17
2022-11-20T01:31:34.051Z,34.13
2022-11-20T01:34:04.707Z,32.78
2022-11-20T01:36:35.596Z,40.10
2022-11-20T01:39:08.124Z,42.75
2022-11-20T01:41:54.626Z,42.35
2022-11-20T01:44:24.720Z,36.30
2022-11-20T01:47:00.030Z,34.45
2022-11-20T01:49:37.677Z,40.28
2022-11-20T01:52:10.035Z,38.70
2022-11-20T01:54:44.349Z,39.65
2022-11-20T01:57:14.329Z,34.40
2022-11-20T01:59:47.444Z,35.20
2022-11-20T02:02:16.620Z,31.80
2022-11-20T02:04:45.086Z,36.55
2022-11-20T02:07:14.437Z,32.22
2022-11-20T02:09:44.149Z,31.08
2022-11-20T02:12:32.875Z,32.78
2022-11-20T02:15:00.130Z,34.37
2022-11-20T02:17:28.669Z,31.98
2022-11-20T02:19:57.072Z,33.38
2022-11-20T02:22:29.785Z,36.70
2022-11-20T02:25:03.262Z,32.53
2022-11-20T02:27:31.997Z,32.47
2022-11-20T02:30:03.915Z,36.17
2022-11-20T02:32:34.440Z,32.80
2022-11-20T02:35:10.070Z,33.30
2022-11-20T02:37:41.896Z,32.50
2022-11-20T02:40:12.684Z,33.50
2022-11-20T02:42:41.393Z,33.38
2022-11-20T02:45:10.562Z,28.83
2022-11-20T02:50:08.098Z,30.55
2022-11-20T02:52:36.628Z,28.00
2022-11-20T02:55:05.700Z,30.58
2022-11-20T03:02:33.983Z,33.20
2022-11-20T03:05:02.183Z,33.72
2022-11-20T03:07:30.775Z,32.27
2022-11-20T03:09:58.932Z,33.50
2022-11-20T03:12:27.367Z,34.53
2022-11-20T03:14:56.925Z,33.30
2022-11-20T03:17:25.375Z,30.15
2022-11-20T03:19:53.519Z,31.30
2022-11-20T03:22:22.025Z,35.50
2022-11-20T03:24:50.082Z,48.17
2022-11-20T03:27:18.448Z,35.55
2022-11-20T03:29:46.603Z,33.88
2022-11-20T03:32:16.503Z,37.73
2022-11-20T03:34:44.590Z,32.30
2022-11-20T03:37:13.113Z,35.95
2022-11-20T03:39:41.247Z,37.20
2022-11-20T03:42:30.970Z,29.60
2022-11-20T03:44:59.283Z,33.15
2022-11-20T03:47:29.596Z,29.90
2022-11-20T03:49:57.752Z,31.95
2022-11-20T03:52:26.127Z,31.63
2022-11-20T03:54:54.260Z,32.53
2022-11-20T03:57:22.973Z,26.58
2022-11-20T03:59:51.178Z,28.57
2022-11-20T04:02:19.628Z,29.85
2022-11-20T04:04:49.142Z,26.77
2022-11-20T04:07:17.740Z,31.33
2022-11-20T04:09:46.090Z,35.83
2022-11-20T04:12:14.511Z,28.77
2022-11-20T04:14:42.689Z,27.70
2022-11-20T04:17:11.065Z,20.63
2022-11-20T04:19:39.193Z,32.85
2022-11-20T04:22:09.680Z,32.87
2022-11-20T04:24:37.792Z,29.90
2022-11-20T04:27:06.219Z,26.17
2022-11-20T04:29:34.438Z,35.67
2022-11-20T04:32:02.850Z,32.88
2022-11-20T04:34:31.237Z,25.48
2022-11-20T04:37:00.966Z,25.33
2022-11-20T04:39:30.514Z,36.20
2022-11-20T04:42:14.931Z,39.42
2022-11-20T04:44:43.075Z,40.28
2022-11-20T04:47:11.778Z,35.47
2022-11-20T04:49:39.956Z,39.83
2022-11-20T04:52:08.417Z,39.47
2022-11-20T04:54:37.899Z,33.53
2022-11-20T04:57:09.991Z,33.05
2022-11-20T04:59:41.146Z,31.42
2022-11-20T05:02:09.809Z,44.00
2022-11-20T05:04:38.066Z,35.92
2022-11-20T05:07:06.543Z,33.97
2022-11-20T05:09:34.748Z,34.35
2022-11-20T05:12:05.080Z,34.13
2022-11-20T05:14:33.175Z,36.17
2022-11-20T05:17:01.584Z,37.67
2022-11-20T05:19:29.811Z,29.05
2022-11-20T05:21:58.226Z,29.90
2022-11-20T05:24:26.353Z,38.50
2022-11-20T05:26:54.836Z,34.40
2022-11-20T05:29:24.317Z,35.22
2022-11-20T05:31:52.751Z,28.67
2022-11-20T05:34:20.965Z,37.20
2022-11-20T05:36:49.532Z,29.50
2022-11-20T05:39:17.638Z,38.22
2022-11-20T05:41:46.193Z,35.65
2022-11-20T05:44:14.448Z,40.85
2022-11-20T05:46:44.248Z,44.22
2022-11-20T05:49:12.437Z,39.88
2022-11-20T05:51:41.043Z,41.75
2022-11-20T05:54:09.146Z,43.92
2022-11-20T05:56:37.667Z,39.88
2022-11-20T05:59:05.750Z,41.20
2022-11-20T06:01:34.101Z,46.53
2022-11-20T06:04:04.456Z,38.50
2022-11-20T06:06:32.860Z,41.30
2022-11-20T06:09:01.018Z,35.45
2022-11-20T06:11:29.553Z,39.80
2022-11-20T06:13:57.676Z,42.22
2022-11-20T06:16:26.085Z,41.97
2022-11-20T06:18:54.289Z,38.85
2022-11-20T06:21:25.067Z,34.97
2022-11-20T06:23:55.045Z,34.80
2022-11-20T06:26:25.361Z,39.05
2022-11-20T06:28:54.395Z,44.17
2022-11-20T06:31:25.111Z,42.55
2022-11-20T06:33:54.199Z,42.38
2022-11-20T06:38:52.832Z,44.05
2022-11-20T06:41:23.702Z,35.60
2022-11-20T06:43:52.278Z,41.45
2022-11-20T06:46:21.588Z,37.33
2022-11-20T06:48:50.248Z,33.30
2022-11-20T06:51:19.596Z,39.22
2022-11-20T06:53:49.716Z,35.08
2022-11-20T06:56:18.181Z,39.90
2022-11-20T06:58:46.768Z,33.78
2022-11-20T07:01:16.820Z,39.47
2022-11-20T07:03:45.778Z,30.45
2022-11-20T07:06:16.488Z,43.25
2022-11-20T07:08:44.565Z,42.85
2022-11-20T07:11:14.971Z,40.87
2022-11-20T07:13:43.220Z,41.45
2022-11-20T07:16:11.710Z,49.88
2022-11-20T07:18:39.816Z,46.08
2022-11-20T07:21:11.906Z,46.80
2022-11-20T07:23:40.204Z,39.40
2022-11-20T07:26:10.362Z,50.35
2022-11-20T07:28:40.837Z,48.30
2022-11-20T07:31:09.245Z,51.72
2022-11-20T07:33:38.874Z,56.58
2022-11-20T07:36:09.485Z,62.33
2022-11-20T07:38:38.993Z,83.10
2022-11-20T07:41:07.545Z,95.28
2022-11-20T07:43:39.935Z,88.85
2022-11-20T07:46:10.892Z,92.07
2022-11-20T07:51:07.478Z,80.20
2022-11-20T07:53:36.014Z,95.50
2022-11-20T07:56:07.021Z,116.28
2022-11-20T07:58:35.598Z,91.30
2022-11-20T08:01:08.242Z,78.07
2022-11-20T08:03:39.436Z,74.35
2022-11-20T08:06:08.960Z,58.67
2022-11-20T08:08:43.007Z,60.35
2022-11-20T08:11:29.162Z,50.33
2022-11-20T08:14:15.441Z,51.40
2022-11-20T08:16:46.489Z,53.70
2022-11-20T08:19:17.214Z,52.72
2022-11-20T08:21:46.017Z,52.35
2022-11-20T08:24:14.600Z,53.20
2022-11-20T08:26:43.181Z,57.45
2022-11-20T08:29:11.323Z,55.42
2022-11-20T08:31:40.350Z,50.63
2022-11-20T08:34:29.875Z,59.72
2022-11-20T08:36:58.643Z,52.00
2022-11-20T08:39:26.752Z,49.00
2022-11-20T08:41:55.291Z,53.67
2022-11-20T08:44:24.957Z,49.88
2022-11-20T08:46:53.372Z,57.22
2022-11-20T08:49:22.876Z,55.60
2022-11-20T08:51:56.221Z,59.17
2022-11-20T08:54:24.427Z,57.38
2022-11-20T08:56:53.439Z,54.45
2022-11-20T09:02:10.228Z,55.65
2022-11-20T09:04:38.356Z,55.00
2022-11-20T09:07:11.219Z,61.47
2022-11-20T09:09:39.395Z,68.70
2022-11-20T09:12:07.790Z,70.32
2022-11-20T09:14:35.907Z,68.97
2022-11-20T09:17:04.544Z,70.63
2022-11-20T09:19:36.487Z,70.03
2022-11-20T09:22:07.207Z,73.55
2022-11-20T09:24:36.995Z,71.88
2022-11-20T09:27:06.789Z,67.75
2022-11-20T09:29:34.914Z,71.13
2022-11-20T09:32:03.356Z,59.47
2022-11-20T09:34:31.464Z,65.95
2022-11-20T09:37:02.988Z,73.43
2022-11-20T09:39:34.880Z,67.63
2022-11-20T09:42:22.075Z,73.38
2022-11-20T09:45:13.520Z,61.72
2022-11-20T09:48:07.997Z,60.22
2022-11-20T09:50:43.100Z,59.17
2022-11-20T09:53:17.696Z,68.72
2022-11-20T09:55:48.720Z,65.55
2022-11-20T09:58:30.383Z,64.82
2022-11-20T10:01:08.277Z,55.25
2022-11-20T10:03:43.147Z,65.15
2022-11-20T10:06:15.934Z,56.42
2022-11-20T10:08:51.325Z,64.45
2022-11-20T10:11:29.576Z,66.60
2022-11-20T10:14:11.115Z,66.45
2022-11-20T10:16:48.698Z,70.07
2022-11-20T10:19:33.213Z,63.50
2022-11-20T10:22:13.215Z,67.00
2022-11-20T10:24:55.216Z,78.15
2022-11-20T10:27:38.878Z,56.53
2022-11-20T10:30:13.272Z,69.43
2022-11-20T10:32:45.988Z,69.65
2022-11-20T10:35:25.783Z,66.90
2022-11-20T10:38:00.670Z,66.93
2022-11-20T10:40:37.078Z,59.17
2022-11-20T10:43:13.359Z,73.75
2022-11-20T10:45:53.167Z,73.03
2022-11-20T10:51:11.164Z,68.22
2022-11-20T10:53:54.672Z,73.35
2022-11-20T10:56:29.129Z,63.85
2022-11-20T10:59:12.994Z,68.30
2022-11-20T11:01:45.947Z,64.50
2022-11-20T11:04:34.755Z,63.40
2022-11-20T11:07:13.661Z,58.75
2022-11-20T11:09:45.655Z,67.35
2022-11-20T11:12:14.627Z,68.15
2022-11-20T11:14:48.308Z,65.22
2022-11-20T11:17:28.327Z,69.10
2022-11-20T11:20:10.028Z,64.03
2022-11-20T11:22:48.712Z,75.30
2022-11-20T11:25:29.655Z,63.20
2022-11-20T11:28:01.011Z,72.20
2022-11-20T11:30:33.082Z,68.65
2022-11-20T11:33:08.472Z,64.15
2022-11-20T11:35:51.117Z,70.22
2022-11-20T11:38:24.896Z,63.22
2022-11-20T11:40:57.508Z,65.68
2022-11-20T11:43:46.543Z,62.30
2022-11-20T11:46:39.180Z,66.18
2022-11-20T11:49:21.118Z,64.43
2022-11-20T11:52:11.973Z,63.50
2022-11-20T11:54:45.888Z,59.63
2022-11-20T11:57:20.982Z,61.45
2022-11-20T12:00:03.797Z,61.65
2022-11-20T12:02:38.554Z,58.58
2022-11-20T12:05:19.830Z,56.65
2022-11-20T12:10:24.468Z,58.38
2022-11-20T12:12:58.779Z,62.67
2022-11-20T12:15:33.372Z,57.75
2022-11-20T12:18:02.024Z,61.97
2022-11-20T12:20:43.996Z,60.30
2022-11-20T12:23:20.577Z,62.80
2022-11-20T12:25:55.735Z,57.88
2022-11-20T12:28:45.719Z,63.65
2022-11-20T12:31:28.685Z,59.75
2022-11-20T12:34:09.084Z,59.47
2022-11-20T12:36:45.941Z,58.70
2022-11-20T12:39:29.143Z,53.35
2022-11-20T12:42:33.221Z,59.00
2022-11-20T12:45:28.632Z,54.20
2022-11-20T12:48:18.703Z,54.80
2022-11-20T12:51:14.525Z,63.33
2022-11-20T12:53:56.976Z,55.38
2022-11-20T12:56:36.605Z,61.08
2022-11-20T12:59:23.570Z,52.75
2022-11-20T13:01:56.170Z,56.55
2022-11-20T13:04:41.404Z,58.78
2022-11-20T13:07:14.149Z,62.20
2022-11-20T13:09:48.073Z,61.28
2022-11-20T13:12:25.199Z,55.22
2022-11-20T13:15:01.055Z,55.72
2022-11-20T13:17:39.143Z,56.47
2022-11-20T13:20:14.670Z,55.53
2022-11-20T13:22:48.217Z,57.15
2022-11-20T13:25:28.872Z,51.22
2022-11-20T13:27:58.697Z,53.58
2022-11-20T13:30:28.501Z,54.08
2022-11-20T13:38:07.025Z,55.38
2022-11-20T13:40:39.659Z,58.15
2022-11-20T13:43:30.453Z,59.50
2022-11-20T13:46:03.664Z,59.13
2022-11-20T13:48:35.203Z,60.90
2022-11-20T13:51:24.869Z,63.40
2022-11-20T13:56:55.782Z,60.03
2022-11-20T13:59:39.714Z,62.70
2022-11-20T14:02:14.495Z,62.85
2022-11-20T14:04:46.973Z,59.78
2022-11-20T14:07:16.722Z,67.97
2022-11-20T14:09:53.940Z,63.50
2022-11-20T14:12:29.570Z,71.22
2022-11-20T14:14:58.195Z,66.95
2022-11-20T14:17:32.863Z,63.65
2022-11-20T14:20:03.886Z,69.53
2022-11-20T14:22:35.443Z,66.85
2022-11-20T14:25:09.224Z,63.63
2022-11-20T14:27:41.977Z,80.85
2022-11-20T14:30:17.072Z,68.13
2022-11-20T14:32:47.352Z,71.15
2022-11-20T14:35:20.588Z,73.22
2022-11-20T14:37:49.817Z,74.85
2022-11-20T14:40:30.425Z,77.63
2022-11-20T14:43:01.223Z,72.93
2022-11-20T14:45:30.093Z,68.60
2022-11-20T14:48:00.394Z,63.47
2022-11-20T14:50:30.215Z,60.67
2022-11-20T14:53:00.431Z,61.85
2022-11-20T14:55:33.029Z,79.32
2022-11-20T14:58:05.094Z,72.72
2022-11-20T15:00:35.143Z,62.05
2022-11-20T15:03:03.783Z,65.90
2022-11-20T15:05:49.348Z,67.85
2022-11-20T15:08:19.089Z,68.13
2022-11-20T15:10:49.238Z,69.03
2022-11-20T15:13:27.554Z,62.92
2022-11-20T15:15:57.221Z,66.85
2022-11-20T15:18:28.953Z,61.85
2022-11-20T15:20:58.516Z,108.90
2022-11-20T15:23:28.763Z,191.85
2022-11-20T15:25:57.483Z,122.40
2022-11-20T15:28:31.808Z,85.43
2022-11-20T15:31:03.334Z,84.22
2022-11-20T15:33:32.461Z,77.70
2022-11-20T15:36:00.939Z,86.82
2022-11-20T15:38:29.365Z,107.97
2022-11-20T15:40:58.395Z,81.50
2022-11-20T15:43:28.189Z,81.82
2022-11-20T15:48:29.750Z,137.50
2022-11-20T15:51:05.348Z,101.80
2022-11-20T15:53:34.438Z,78.40
2022-11-20T15:56:02.696Z,67.75
2022-11-20T15:58:32.600Z,70.67
2022-11-20T16:01:01.294Z,65.38
2022-11-20T16:03:29.774Z,75.45
2022-11-20T16:05:57.940Z,79.65
2022-11-20T16:08:26.715Z,74.53
2022-11-20T16:10:55.033Z,88.30
2022-11-20T16:13:42.381Z,84.47
2022-11-20T16:16:20.684Z,70.28
2022-11-20T16:18:49.386Z,78.55
2022-11-20T16:21:17.747Z,70.65
2022-11-20T16:23:46.133Z,75.80
2022-11-20T16:26:17.057Z,82.35
2022-11-20T16:28:46.278Z,80.40
2022-11-20T16:31:18.316Z,72.85
2022-11-20T16:33:51.892Z,78.63
2022-11-20T16:36:21.375Z,77.18
2022-11-20T16:38:54.279Z,83.15
2022-11-20T16:41:23.300Z,76.07
2022-11-20T16:43:53.792Z,81.60
2022-11-20T16:46:25.146Z,81.03
2022-11-20T16:48:58.491Z,79.97
2022-11-20T16:51:27.617Z,71.75
2022-11-20T16:53:56.311Z,78.80
2022-11-20T16:56:26.529Z,81.28
2022-11-20T16:58:57.495Z,79.68
2022-11-20T17:01:28.952Z,78.45
2022-11-20T17:04:01.957Z,76.80
2022-11-20T17:06:32.718Z,81.78
2022-11-20T17:09:04.320Z,75.15
2022-11-20T17:11:33.565Z,71.65
2022-11-20T17:14:02.429Z,80.90
2022-11-20T17:16:32.531Z,71.40
2022-11-20T17:19:03.625Z,76.30
2022-11-20T17:21:32.437Z,76.32
2022-11-20T17:24:03.238Z,71.05
2022-11-20T17:26:31.969Z,68.90
2022-11-20T17:29:02.537Z,70.30
2022-11-20T17:31:33.695Z,71.20
2022-11-20T17:34:03.649Z,71.18
2022-11-20T17:36:32.892Z,79.57
2022-11-20T17:39:01.546Z,107.82
2022-11-20T17:41:31.177Z,74.30
2022-11-20T17:44:00.998Z,79.45
2022-11-20T17:49:00.069Z,79.97
2022-11-20T17:51:30.477Z,87.20
2022-11-20T17:54:01.263Z,90.68
2022-11-20T17:56:49.837Z,90.75
2022-11-20T17:59:19.813Z,84.15
2022-11-20T18:01:48.395Z,134.00
2022-11-20T18:04:18.860Z,90.40
2022-11-20T18:06:47.207Z,86.43
2022-11-20T18:09:18.171Z,84.53
2022-11-20T18:11:46.301Z,89.65
2022-11-20T18:14:34.814Z,72.85
2022-11-20T18:17:05.906Z,83.30
2022-11-20T18:19:42.676Z,71.18
2022-11-20T18:22:20.850Z,77.45
2022-11-20T18:24:49.509Z,76.55
2022-11-20T18:27:20.423Z,73.20
2022-11-20T18:29:52.248Z,80.88
2022-11-20T18:32:21.898Z,78.03
2022-11-20T18:34:52.243Z,92.65
2022-11-20T18:37:20.830Z,121.38
2022-11-20T18:39:50.484Z,85.03
2022-11-20T18:45:06.348Z,74.80
2022-11-20T18:47:38.106Z,95.55
2022-11-20T18:50:10.526Z,90.47
2022-11-20T18:52:42.041Z,83.32
2022-11-20T18:55:12.022Z,89.38
2022-11-20T18:57:40.119Z,85.40
2022-11-20T19:00:14.427Z,74.43
2022-11-20T19:02:43.459Z,89.47
2022-11-20T19:07:44.652Z,87.55
2022-11-20T19:10:21.353Z,90.13
2022-11-20T19:12:50.341Z,89.00
2022-11-20T19:15:18.895Z,90.60
2022-11-20T19:17:47.221Z,108.43
2022-11-20T19:20:17.676Z,85.07
2022-11-20T19:22:45.831Z,94.25
2022-11-20T19:25:16.253Z,97.97
2022-11-20T19:27:44.370Z,83.32
2022-11-20T19:30:13.738Z,98.30
2022-11-20T19:32:44.482Z,90.53
2022-11-20T19:35:13.373Z,84.10
2022-11-20T19:37:42.822Z,86.82
2022-11-20T19:40:14.565Z,82.35
2022-11-20T19:42:42.681Z,99.53
2022-11-20T19:45:11.223Z,126.07
2022-11-20T19:48:06.504Z,116.78
2022-11-20T19:50:27.967Z,114.70
2022-11-20T19:52:59.258Z,106.82
2022-11-20T19:55:27.772Z,101.68
2022-11-20T19:57:55.942Z,97.03
2022-11-20T20:00:31.096Z,100.68
2022-11-20T20:03:00.684Z,105.55
2022-11-20T20:05:29.393Z,106.03
2022-11-20T20:07:58.944Z,109.40
2022-11-20T20:10:29.588Z,114.47
2022-11-20T20:12:57.690Z,108.50
2022-11-20T20:15:26.702Z,106.43
2022-11-20T20:17:57.490Z,101.45
2022-11-20T20:20:26.322Z,102.13
2022-11-20T20:22:54.423Z,86.35
2022-11-20T20:25:26.968Z,94.00
2022-11-20T20:27:55.133Z,103.78
2022-11-20T20:30:24.550Z,95.95
2022-11-20T20:32:56.323Z,77.90
2022-11-20T20:35:25.288Z,101.70
2022-11-20T20:37:53.349Z,91.40
2022-11-20T20:40:21.799Z,89.47
2022-11-20T20:42:51.250Z,83.63
2022-11-20T20:45:19.745Z,81.90
2022-11-20T20:47:47.864Z,69.38
2022-11-20T20:50:16.479Z,64.68
2022-11-20T20:52:46.244Z,57.90
2022-11-20T20:55:14.951Z,53.58
2022-11-20T20:57:43.053Z,53.65
2022-11-20T21:00:16.959Z,36.60
2022-11-20T21:02:45.080Z,39.80
2022-11-20T21:05:13.459Z,40.00
2022-11-20T21:08:01.827Z,45.33
2022-11-20T21:10:31.323Z,36.95
2022-11-20T21:12:59.464Z,36.78
2022-11-20T21:15:29.566Z,33.63
2022-11-20T21:17:57.677Z,36.17
2022-11-20T21:20:49.335Z,33.30
2022-11-20T21:23:17.453Z,34.65
2022-11-20T21:25:45.865Z,28.60
2022-11-20T21:28:17.943Z,31.33
2022-11-20T21:30:48.827Z,29.88
2022-11-20T21:33:17.785Z,28.67
2022-11-20T21:35:46.187Z,31.88
2022-11-20T21:38:14.511Z,30.33
2022-11-20T21:40:43.070Z,27.58
2022-11-20T21:43:11.327Z,31.08
2022-11-20T21:45:39.727Z,29.23
2022-11-20T21:48:09.753Z,32.65
2022-11-20T21:50:38.504Z,31.85
2022-11-20T21:55:36.031Z,27.30
2022-11-20T21:58:04.215Z,33.28
2022-11-20T22:00:32.684Z,31.38
2022-11-20T22:03:01.093Z,34.05
2022-11-20T22:05:30.824Z,27.83
2022-11-20T22:10:28.159Z,33.53
2022-11-20T22:13:17.143Z,29.27
2022-11-20T22:15:59.846Z,28.48
2022-11-20T22:18:28.609Z,28.40
2022-11-20T22:20:59.816Z,29.08
2022-11-20T22:23:27.868Z,23.98
2022-11-20T22:25:56.395Z,31.63
2022-11-20T22:28:24.705Z,29.70
2022-11-20T22:30:53.138Z,29.20
2022-11-20T22:33:22.031Z,26.65
2022-11-20T22:35:50.669Z,28.98
2022-11-20T22:38:20.433Z,29.35
2022-11-20T22:40:48.828Z,29.05
2022-11-20T22:43:17.083Z,27.67
2022-11-20T22:45:45.811Z,31.90
2022-11-20T22:48:13.940Z,32.55
2022-11-20T22:50:42.537Z,33.83
2022-11-20T22:53:10.654Z,34.13
2022-11-20T22:55:40.453Z,35.88
2022-11-20T23:00:36.909Z,32.90
2022-11-20T23:03:05.022Z,31.33
2022-11-20T23:05:33.915Z,30.52
2022-11-20T23:08:02.272Z,33.47
2022-11-20T23:10:33.163Z,32.38
2022-11-20T23:13:03.116Z,29.77
2022-11-20T23:15:31.513Z,30.00
2022-11-20T23:17:59.782Z,29.33
2022-11-20T23:20:28.191Z,24.42
2022-11-20T23:22:56.495Z,26.35
2022-11-20T23:25:25.077Z,29.45
2022-11-20T23:27:54.375Z,26.60
2022-11-20T23:30:24.134Z,25.33
2022-11-20T23:35:20.422Z,22.90
2022-11-20T23:37:48.533Z,23.40
2022-11-20T23:40:17.026Z,23.02
2022-11-20T23:42:59.499Z,21.40
2022-11-20T23:45:29.305Z,19.80
2022-11-20T23:47:58.843Z,19.30
2022-11-20T23:50:27.737Z,21.98
2022-11-20T23:52:55.857Z,22.33
2022-11-20T23:55:24.252Z,21.67
2022-11-20T23:57:52.452Z,22.25
